Latest Weather Observations for Christmas Island

IDW60801

Issued at 3:05 pm WST Tuesday 2 September 2014 (issued every 30 minutes, with the page automatically refreshed every 10 minutes)

About weather observations | Map of weather stations | Latest weather observations for WA | Other Formats
Station Details ID: 200790 Name: CHRISTMAS ISLAND AERO Lat: -10.45 Lon: 105.69 Height: 261.0 m
Data from the previous 72 hours. | See also: Recent months at Christmas Island
Date/Time
WST
Temp
°C
App
Temp
°C
Dew
Point
Rel
Hum
%
Delta-T
°C
Wind Press
QNH
hPa
Press
MSL
hPa
Rain
since 9 am
mm
Dir
 
Spd
km/h
Gust
km/h
Spd
kts
Gust
kts
02/03:00pm 25.8 26.2 21.0 75 3.2 E 20 28 11 15 1013.0 - 0.0
02/02:31pm 25.7 26.1 21.0 75 3.1 E 20 28 11 15 1013.5 - 0.0
02/02:24pm 26.1 26.0 20.7 72 3.6 ENE 22 30 12 16 1013.6 - 0.0
02/02:00pm 26.1 26.5 21.0 73 3.4 E 20 28 11 15 1013.7 - 0.0
02/01:38pm 25.8 25.3 20.8 74 3.3 E 24 30 13 16 1014.0 - 0.0
02/01:07pm 26.8 26.6 20.6 69 4.1 ENE 22 32 12 17 1014.3 - 0.0
02/01:00pm 26.7 26.8 20.3 68 4.2 E 20 30 11 16 1014.5 1013.1 0.0
02/12:37pm 26.1 25.6 20.8 72 3.5 E 24 32 13 17 1014.7 - 0.0
02/12:16pm 26.6 26.5 20.7 70 3.9 E 22 32 12 17 1014.9 - 0.0
02/12:10pm 26.0 25.8 20.6 72 3.6 E 22 32 12 17 1014.9 - 0.0
02/12:00pm 26.2 26.0 20.6 71 3.7 E 22 32 12 17 1015.0 - 0.0
02/11:53am 25.6 25.1 20.8 75 3.2 E 24 32 13 17 1015.1 - 0.0
02/11:00am 26.0 25.6 20.1 70 3.9 E 22 32 12 17 1015.7 - 0.0
02/10:53am 25.6 25.0 20.4 73 3.4 E 24 32 13 17 1015.9 - 0.0
02/10:09am 25.3 25.7 20.6 75 3.1 E 19 26 10 14 1015.9 - 0.0
02/10:00am 25.2 25.1 20.7 76 3.0 E 22 30 12 16 1015.8 1014.4 0.0
02/09:00am 24.5 24.1 20.1 76 2.9 E 22 28 12 15 1015.4 - 0.0
02/08:00am 23.7 23.4 19.2 76 2.9 E 19 28 10 15 1015.0 - 0.0
02/07:45am 23.2 23.0 19.8 81 2.2 E 20 28 11 15 1014.8 - 0.0
02/07:28am 23.2 23.5 20.3 84 1.9 E 19 26 10 14 1014.6 - 0.0
02/07:00am 22.9 22.7 19.7 82 2.1 E 20 28 11 15 1014.3 1012.9 0.0
02/06:54am 22.7 22.9 19.4 81 2.1 E 17 28 9 15 1014.3 - 0.0
02/06:34am 22.8 22.8 19.7 83 2.0 E 19 28 10 15 1014.1 - 0.0
02/06:31am 22.7 23.1 19.8 84 1.9 E 17 26 9 14 1014.1 - 0.0
02/06:17am 22.7 22.6 19.9 84 1.8 E 20 26 11 14 1014.0 - 0.0
02/06:03am 22.8 23.2 19.9 84 1.9 E 17 24 9 13 1013.9 - 0.0
02/06:00am 22.8 23.2 19.9 84 1.9 E 17 24 9 13 1013.9 - 0.0
02/05:48am 22.9 23.1 20.1 84 1.8 E 19 26 10 14 1013.8 - 0.0
02/05:40am 22.8 23.1 19.7 83 2.0 E 17 26 9 14 1013.9 - 0.0
02/05:23am 22.9 23.0 20.0 84 1.9 E 19 26 10 14 1013.9 - 0.0
02/05:00am 22.9 23.4 20.1 84 1.8 E 17 24 9 13 1013.8 - 0.0
02/04:54am 22.8 23.2 19.9 84 1.9 E 17 26 9 14 1013.8 - 0.0
02/04:12am 22.9 23.5 20.3 85 1.7 E 17 26 9 14 1013.7 - 0.0
02/04:00am 22.8 23.3 20.0 84 1.8 E 17 24 9 13 1013.8 1012.4 0.0
02/03:00am 22.9 22.8 19.5 81 2.2 E 19 24 10 13 1014.0 - 0.0
02/02:39am 22.9 22.9 19.8 83 2.0 E 19 24 10 13 1014.1 - 0.0
02/02:17am 23.0 23.3 19.6 81 2.2 E 17 26 9 14 1014.4 - 0.0
02/02:16am 23.0 23.2 19.4 80 2.3 E 17 26 9 14 1014.3 - 0.0
02/02:00am 23.1 23.5 19.9 82 2.1 E 17 24 9 13 1014.4 - 0.0
02/01:59am 23.1 23.6 20.0 83 2.0 E 17 24 9 13 1014.4 - 0.0
02/01:00am 23.0 23.6 20.2 84 1.8 ESE 17 24 9 13 1014.6 1013.2 0.0
02/12:21am 23.0 23.6 20.2 84 1.8 ESE 17 24 9 13 1014.8 - 0.0
02/12:00am 23.3 23.8 20.1 82 2.1 ESE 17 24 9 13 1014.8 - 0.0
 
Date/Time
WST
Temp
°C
App
Temp
°C
Dew
Point
Rel
Hum
%
Delta-T
°C
Wind Press
QNH
hPa
Press
MSL
hPa
Rain
since 9 am
mm
Dir
 
Spd
km/h
Gust
km/h
Spd
kts
Gust
kts
01/11:23pm 23.3 23.5 20.2 83 2.0 ESE 19 28 10 15 1014.8 - 0.0
01/11:22pm 23.3 23.5 20.2 83 2.0 ESE 19 28 10 15 1014.8 - 0.0
01/11:10pm 23.3 24.0 20.4 84 1.9 E 17 26 9 14 1014.9 - 0.0
01/11:00pm 23.2 23.5 20.3 84 1.9 ESE 19 28 10 15 1014.8 - 0.0
01/10:05pm 23.2 23.2 19.8 81 2.2 ESE 19 26 10 14 1014.6 - 0.0
01/10:00pm 23.3 23.3 20.1 82 2.1 ESE 20 28 11 15 1014.6 1013.2 0.0
01/09:51pm 23.3 23.9 20.2 83 2.0 ESE 17 26 9 14 1014.5 - 0.0
01/09:49pm 23.4 23.6 20.2 82 2.1 ESE 19 28 10 15 1014.5 - 0.0
01/09:02pm 23.4 23.5 19.9 81 2.3 E 19 28 10 15 1013.9 - 0.0
01/09:00pm 23.4 23.5 20.0 81 2.2 E 19 28 10 15 1013.9 - 0.0
01/08:00pm 23.4 23.4 19.7 80 2.4 ESE 19 26 10 14 1013.2 - 0.0
01/07:04pm 23.6 23.5 19.6 78 2.6 ESE 19 28 10 15 1012.7 - 0.0
01/07:00pm 23.6 23.5 19.6 78 2.6 ESE 19 28 10 15 1012.6 1011.1 0.0
01/06:47pm 23.8 23.8 19.8 78 2.6 ESE 19 26 10 14 1012.5 - 0.0
01/06:00pm 24.6 24.5 19.5 73 3.3 E 19 26 10 14 1012.2 - 0.0
01/05:41pm 24.6 24.5 19.5 73 3.3 E 19 24 10 13 1011.9 - 0.0
01/05:19pm 24.7 24.6 19.6 73 3.3 ESE 19 28 10 15 1011.9 - 0.0
01/05:18pm 24.7 24.4 19.5 73 3.4 ESE 20 28 11 15 1011.9 - 0.0
01/05:00pm 25.2 25.2 19.7 71 3.6 ESE 19 24 10 13 1011.8 - 0.0
01/04:39pm 25.3 25.1 19.8 71 3.6 E 20 28 11 15 1011.7 - 0.0
01/04:00pm 25.3 25.0 19.5 70 3.8 E 20 28 11 15 1011.8 1010.4 0.0
01/03:00pm 25.7 25.2 19.1 67 4.3 E 20 32 11 17 1012.2 - 0.0
01/02:58pm 25.7 25.2 19.1 67 4.3 E 20 32 11 17 1012.3 - 0.0
01/02:41pm 25.5 25.2 19.5 69 3.9 E 20 26 11 14 1012.4 - 0.0
01/02:01pm 26.2 26.0 19.8 68 4.2 E 20 28 11 15 1013.2 - 0.0
01/02:00pm 26.3 26.0 19.6 66 4.4 E 20 28 11 15 1013.2 - 0.0
01/01:50pm 26.1 26.0 20.0 69 4.0 E 20 28 11 15 1013.4 - 0.0
01/01:47pm 25.7 25.5 19.7 69 3.9 E 20 28 11 15 1013.4 - 0.0
01/01:30pm 25.1 25.0 19.9 73 3.4 ESE 20 26 11 14 1013.6 - 0.0
01/01:00pm 26.0 25.6 19.4 67 4.3 E 20 28 11 15 1013.7 1012.3 0.0
01/12:00pm 26.0 25.7 19.6 68 4.2 E 20 30 11 16 1014.3 - 0.0
01/11:51am 25.8 25.3 19.2 67 4.3 E 20 30 11 16 1014.5 - 0.0
01/11:31am 25.6 25.5 20.0 71 3.7 E 20 28 11 15 1014.9 - 0.0
01/11:00am 25.4 24.7 19.4 69 3.9 E 22 30 12 16 1015.1 - 0.0
01/10:41am 25.7 24.5 19.2 67 4.2 E 24 32 13 17 1015.1 - 0.0
01/10:00am 24.6 24.1 20.0 75 3.0 E 22 33 12 18 1015.1 1013.7 0.0
01/09:00am 24.0 23.3 19.5 76 2.9 E 22 30 12 16 1014.6 - 0.0
01/08:59am 24.0 23.3 19.5 76 2.9 E 22 30 12 16 1014.6 - 0.0
01/08:51am 24.4 23.8 19.8 75 3.0 E 22 32 12 17 1014.5 - 0.0
01/08:00am 23.6 23.7 19.9 80 2.4 E 19 26 10 14 1014.1 - 0.0
01/07:00am 22.9 22.9 19.8 83 2.0 E 19 26 10 14 1013.5 1012.1 0.0
01/06:00am 22.9 22.6 19.5 81 2.2 E 20 30 11 16 1013.0 - 0.0
01/05:00am 22.9 22.9 19.7 82 2.1 E 19 28 10 15 1012.4 - 0.0
01/04:08am 23.1 23.2 20.0 83 2.0 E 19 28 10 15 1012.2 - 0.0
01/04:05am 23.1 23.2 20.0 83 2.0 E 19 28 10 15 1012.2 - 0.0
01/04:00am 23.0 22.8 19.8 82 2.1 E 20 30 11 16 1012.2 1010.7 0.0
01/03:00am 23.1 23.2 19.9 82 2.1 E 19 30 10 16 1012.3 - 0.0
01/02:00am 23.2 23.3 20.3 84 1.9 E 20 32 11 17 1012.8 - 0.0
01/01:00am 23.3 23.2 20.7 85 1.7 E 22 32 12 17 1013.1 1011.7 0.0
01/12:06am 23.4 23.7 20.5 84 1.9 E 19 30 10 16 1013.2 - 0.0
01/12:00am 23.5 23.7 20.5 83 2.0 E 20 32 11 17 1013.1 - 0.0
 
Date/Time
WST
Temp
°C
App
Temp
°C
Dew
Point
Rel
Hum
%
Delta-T
°C
Wind Press
QNH
hPa
Press
MSL
hPa
Rain
since 9 am
mm
Dir
 
Spd
km/h
Gust
km/h
Spd
kts
Gust
kts
31/11:58pm 23.4 23.2 20.5 84 1.9 E 22 32 12 17 1013.1 - 0.0
31/11:00pm 23.5 24.3 20.6 84 1.9 E 17 24 9 13 1013.5 - 0.0
31/10:18pm 23.4 23.7 20.5 84 1.9 E 19 24 10 13 1013.5 - 0.0
31/10:00pm 23.4 24.0 20.2 82 2.1 E 17 26 9 14 1013.4 1012.0 0.0
31/09:22pm 23.6 23.9 20.4 82 2.1 E 19 28 10 15 1013.3 - 0.0
31/09:03pm 23.5 23.6 20.0 81 2.3 E 19 26 10 14 1013.4 - 0.0
31/09:00pm 23.5 23.5 19.8 80 2.4 E 19 24 10 13 1013.3 - 0.0
31/08:27pm 23.7 24.3 20.2 81 2.3 E 17 22 9 12 1013.2 - 0.0
31/08:00pm 23.7 24.2 20.0 80 2.4 E 17 24 9 13 1012.9 - 0.0
31/07:00pm 23.8 24.6 19.8 78 2.6 E 15 24 8 13 1012.3 1010.8 0.0
31/06:00pm 24.8 25.1 19.6 73 3.4 E 17 24 9 13 1012.3 - 0.0
31/05:00pm 25.1 24.9 19.4 70 3.7 E 19 28 10 15 1012.2 - 0.0
31/04:35pm 26.0 26.6 20.2 70 3.8 E 17 22 9 12 1012.2 - 0.0
31/04:16pm 25.3 25.3 20.1 73 3.4 E 20 26 11 14 1012.1 - 0.0
31/04:00pm 25.6 25.9 20.5 73 3.4 E 19 28 10 15 1012.1 1010.6 0.0
31/03:53pm 25.6 25.6 20.1 71 3.6 E 20 24 11 13 1012.1 - 0.0
31/03:14pm 25.7 25.6 19.9 70 3.8 E 20 32 11 17 1012.2 - 0.0
31/03:00pm 26.0 25.9 19.9 69 4.0 E 20 28 11 15 1012.3 - 0.0
31/02:00pm 26.5 26.2 19.5 65 4.6 E 20 32 11 17 1012.7 - 0.0
31/01:55pm 26.0 25.3 19.6 68 4.2 E 22 32 12 17 1012.8 - 0.0
31/01:00pm 25.8 25.5 20.3 71 3.6 E 22 32 12 17 1013.4 1012.0 0.0
31/12:27pm 25.6 24.7 19.8 70 3.8 E 24 32 13 17 1013.6 - 0.0
31/12:00pm 25.3 24.8 20.0 72 3.5 E 22 32 12 17 1013.9 - 0.0
31/11:57am 25.3 24.5 20.0 72 3.5 E 24 33 13 18 1013.9 - 0.0
31/11:18am 25.9 25.3 20.4 71 3.6 E 24 30 13 16 1014.2 - 0.0
31/11:06am 25.9 25.5 20.1 70 3.8 E 22 30 12 16 1014.4 - 0.0
31/11:00am 25.5 25.1 20.2 72 3.5 E 22 28 12 15 1014.5 - 0.0
31/10:52am 25.2 24.5 20.2 74 3.3 E 24 32 13 17 1014.6 - 0.0
31/10:00am 25.1 25.1 20.1 74 3.3 E 20 30 11 16 1014.9 1013.5 0.0
31/09:00am 24.9 24.9 19.8 73 3.3 E 19 28 10 15 1014.9 - 0.0
31/08:00am 23.7 23.9 19.4 77 2.8 E 17 26 9 14 1014.8 - 0.0
31/07:00am 23.2 24.3 20.5 85 1.8 E 15 20 8 11 1014.2 1012.8 0.0
31/06:51am 23.2 24.6 20.3 84 1.9 E 13 22 7 12 1014.2 - 0.0
31/06:30am 23.0 23.8 19.9 83 2.0 ENE 15 20 8 11 1014.1 - 0.0
31/06:00am 23.1 24.0 20.0 83 2.0 ENE 15 22 8 12 1014.0 - 0.0
31/05:00am 23.2 24.7 20.5 85 1.8 E 13 19 7 10 1013.9 - 0.0
31/04:27am 23.2 25.0 20.3 84 1.9 ESE 11 17 6 9 1013.9 - 0.0
31/04:00am 23.1 24.3 20.0 83 2.0 E 13 22 7 12 1013.9 1012.5 0.0
31/03:21am 23.1 24.3 19.9 82 2.1 ESE 13 22 7 12 1014.0 - 0.0
31/03:15am 23.1 24.2 19.7 81 2.2 ESE 13 19 7 10 1014.0 - 0.0
31/03:00am 23.1 24.6 19.7 81 2.2 E 11 20 6 11 1014.2 - 0.0
31/02:40am 23.2 24.4 20.0 82 2.1 E 13 20 7 11 1014.0 - 0.0
31/02:00am 22.9 22.8 19.5 81 2.2 ESE 19 26 10 14 1014.1 - 0.0
31/01:00am 23.0 23.4 19.8 82 2.1 ESE 17 28 9 15 1014.5 1013.1 0.0
31/12:00am 23.0 23.5 19.3 79 2.4 ESE 15 28 8 15 1014.6 - 0.0
 
Date/Time
WST
Temp
°C
App
Temp
°C
Dew
Point
Rel
Hum
%
Delta-T
°C
Wind Press
QNH
hPa
Press
MSL
hPa
Rain
since 9 am
mm
Dir
 
Spd
km/h
Gust
km/h
Spd
kts
Gust
kts
30/11:00pm 23.1 22.7 18.9 77 2.7 ESE 19 32 10 17 1014.4 - 0.0
30/10:00pm 23.1 22.3 18.5 75 2.9 ESE 20 30 11 16 1014.4 1013.0 0.0
30/09:00pm 23.2 22.3 18.3 74 3.1 ESE 20 32 11 17 1014.2 - 0.0
30/08:00pm 23.3 22.9 18.8 76 2.9 ESE 19 26 10 14 1013.9 - 0.0
30/07:00pm 23.3 22.7 18.8 76 2.9 ESE 20 28 11 15 1013.3 1011.9 0.0
30/06:00pm 24.2 23.3 19.1 73 3.3 ESE 22 32 12 17 1012.8 - 0.0
30/05:00pm 24.9 23.9 18.8 69 3.9 ESE 22 32 12 17 1012.7 - 0.0

Other Formats:

Comma delimited format used in spreadsheet applications
http://www.bom.gov.au/fwo/IDW60801/IDW60801.96995.axf

JavaScript Object Notation format (JSON) in row-major order
http://www.bom.gov.au/fwo/IDW60801/IDW60801.96995.json